createdAt,value
2017-06-04T00:01:01.129Z,16.60
2017-06-04T00:03:29.527Z,16.60
2017-06-04T00:05:57.892Z,16.50
2017-06-04T00:08:26.275Z,16.50
2017-06-04T00:10:54.635Z,16.40
2017-06-04T00:13:23.017Z,16.40
2017-06-04T00:15:51.380Z,16.40
2017-06-04T00:18:19.770Z,16.30
2017-06-04T00:20:48.136Z,16.30
2017-06-04T00:23:16.502Z,16.30
2017-06-04T00:25:44.886Z,16.20
2017-06-04T00:28:13.258Z,16.30
2017-06-04T00:30:41.639Z,16.20
2017-06-04T00:33:10.013Z,16.20
2017-06-04T00:35:38.392Z,16.20
2017-06-04T00:38:06.779Z,16.10
2017-06-04T00:40:35.192Z,16.10
2017-06-04T00:43:03.559Z,16.10
2017-06-04T00:45:31.921Z,16.10
2017-06-04T00:48:00.308Z,16.10
2017-06-04T00:50:28.667Z,16.10
2017-06-04T00:52:57.055Z,16.00
2017-06-04T00:55:25.427Z,16.00
2017-06-04T00:57:53.810Z,16.00
2017-06-04T01:00:22.181Z,16.00
2017-06-04T01:02:50.575Z,16.00
2017-06-04T01:05:18.939Z,16.00
2017-06-04T01:07:47.305Z,15.90
2017-06-04T01:10:15.731Z,15.90
2017-06-04T01:12:44.098Z,15.90
2017-06-04T01:15:12.480Z,15.80
2017-06-04T01:17:40.842Z,15.80
2017-06-04T01:20:09.226Z,15.70
2017-06-04T01:22:37.591Z,15.70
2017-06-04T01:25:06.012Z,15.70
2017-06-04T01:27:34.385Z,15.60
2017-06-04T01:30:02.750Z,15.60
2017-06-04T01:32:31.139Z,15.60
2017-06-04T01:34:59.500Z,15.50
2017-06-04T01:37:27.887Z,15.50
2017-06-04T01:39:56.256Z,15.50
2017-06-04T01:42:24.640Z,15.50
2017-06-04T01:44:53.087Z,15.40
2017-06-04T01:47:21.479Z,15.40
2017-06-04T01:49:49.843Z,15.40
2017-06-04T01:52:18.226Z,15.40
2017-06-04T01:54:46.612Z,15.40
2017-06-04T01:57:14.213Z,15.40
2017-06-04T01:59:42.596Z,15.40
2017-06-04T02:02:10.961Z,15.40
2017-06-04T02:04:39.356Z,15.40
2017-06-04T02:07:07.723Z,15.40
2017-06-04T02:09:36.101Z,15.40
2017-06-04T02:12:04.488Z,15.40
2017-06-04T02:14:32.907Z,15.40
2017-06-04T02:17:01.286Z,15.30
2017-06-04T02:19:29.664Z,15.30
2017-06-04T02:21:58.051Z,15.30
2017-06-04T02:24:26.427Z,15.30
2017-06-04T02:26:54.052Z,15.30
2017-06-04T02:29:22.414Z,15.30
2017-06-04T02:31:50.772Z,15.30
2017-06-04T02:34:19.160Z,15.40
2017-06-04T02:36:47.520Z,15.30
2017-06-04T02:39:15.905Z,15.30
2017-06-04T02:41:44.268Z,15.40
2017-06-04T02:44:12.648Z,15.40
2017-06-04T02:46:41.009Z,15.30
2017-06-04T02:49:09.417Z,15.30
2017-06-04T02:51:37.781Z,15.30
2017-06-04T02:54:06.144Z,15.40
2017-06-04T02:56:34.538Z,15.30
2017-06-04T02:59:02.128Z,15.30
2017-06-04T03:01:30.514Z,15.30
2017-06-04T03:03:58.876Z,15.20
2017-06-04T03:06:27.289Z,15.20
2017-06-04T03:08:55.704Z,15.20
2017-06-04T03:11:24.059Z,15.20
2017-06-04T03:13:52.440Z,15.20
2017-06-04T03:16:20.804Z,15.20
2017-06-04T03:18:49.184Z,15.10
2017-06-04T03:21:17.540Z,15.10
2017-06-04T03:23:45.922Z,15.10
2017-06-04T03:26:14.290Z,15.10
2017-06-04T03:28:42.676Z,15.10
2017-06-04T03:31:11.041Z,15.10
2017-06-04T03:33:39.397Z,15.10
2017-06-04T03:36:07.019Z,15.10
2017-06-04T03:38:35.382Z,15.10
2017-06-04T03:41:03.770Z,15.00
2017-06-04T03:43:32.134Z,15.00
2017-06-04T03:46:00.520Z,15.00
2017-06-04T03:48:28.885Z,15.00
2017-06-04T03:50:57.298Z,15.00
2017-06-04T03:53:25.672Z,15.00
2017-06-04T03:55:54.044Z,15.00
2017-06-04T03:58:22.435Z,15.00
2017-06-04T04:00:50.032Z,15.00
2017-06-04T04:03:18.506Z,15.00
2017-06-04T04:05:46.868Z,14.90
2017-06-04T04:08:15.371Z,14.90
2017-06-04T04:10:43.737Z,14.90
2017-06-04T04:13:12.244Z,14.90
2017-06-04T04:15:40.608Z,14.90
2017-06-04T04:18:08.977Z,14.90
2017-06-04T04:20:37.373Z,15.00
2017-06-04T04:23:05.824Z,15.00
2017-06-04T04:25:34.215Z,15.00
2017-06-04T04:28:02.586Z,15.00
2017-06-04T04:30:31.900Z,15.10
2017-06-04T04:33:00.271Z,15.10
2017-06-04T04:35:28.691Z,15.10
2017-06-04T04:37:57.059Z,15.10
2017-06-04T04:40:25.447Z,15.10
2017-06-04T04:42:53.837Z,15.10
2017-06-04T04:45:22.215Z,15.10
2017-06-04T04:47:50.598Z,15.20
2017-06-04T04:50:18.977Z,15.20
2017-06-04T04:52:47.376Z,15.30
2017-06-04T04:55:15.747Z,15.30
2017-06-04T04:57:44.206Z,15.40
2017-06-04T05:00:11.808Z,15.40
2017-06-04T05:02:40.205Z,15.60
2017-06-04T05:05:08.598Z,15.70
2017-06-04T05:07:36.995Z,15.80
2017-06-04T05:10:05.407Z,15.90
2017-06-04T05:12:33.832Z,16.00
2017-06-04T05:15:02.227Z,16.10
2017-06-04T05:17:30.606Z,16.20
2017-06-04T05:19:59.024Z,16.30
2017-06-04T05:22:27.390Z,16.40
2017-06-04T05:24:55.768Z,16.50
2017-06-04T05:27:40.950Z,16.50
2017-06-04T05:30:09.320Z,16.50
2017-06-04T05:32:37.711Z,16.50
2017-06-04T05:35:06.075Z,16.60
2017-06-04T05:37:34.544Z,16.70
2017-06-04T05:40:02.908Z,16.80
2017-06-04T05:42:31.308Z,16.80
2017-06-04T05:44:59.688Z,16.70
2017-06-04T05:47:28.056Z,16.50
2017-06-04T05:49:56.456Z,16.30
2017-06-04T05:52:24.091Z,16.30
2017-06-04T05:54:52.477Z,16.20
2017-06-04T05:57:20.842Z,16.10
2017-06-04T05:59:49.228Z,16.00
2017-06-04T06:02:17.601Z,16.00
2017-06-04T06:04:45.992Z,15.90
2017-06-04T06:07:14.360Z,15.80
2017-06-04T06:09:42.764Z,15.90
2017-06-04T06:12:11.139Z,16.00
2017-06-04T06:14:39.502Z,16.20
2017-06-04T06:17:07.887Z,16.30
2017-06-04T06:19:36.252Z,16.50
2017-06-04T06:22:04.645Z,16.60
2017-06-04T06:24:33.016Z,16.80
2017-06-04T06:27:01.413Z,16.90
2017-06-04T06:29:29.775Z,17.10
2017-06-04T06:31:58.188Z,17.20
2017-06-04T06:34:26.599Z,17.20
2017-06-04T06:36:54.962Z,17.30
2017-06-04T06:39:23.380Z,17.50
2017-06-04T06:41:51.745Z,17.70
2017-06-04T06:44:20.131Z,17.90
2017-06-04T06:46:48.504Z,18.10
2017-06-04T06:49:16.912Z,18.10
2017-06-04T06:51:45.279Z,18.20
2017-06-04T06:54:13.745Z,18.30
2017-06-04T06:56:42.135Z,18.30
2017-06-04T06:59:10.507Z,18.40
2017-06-04T07:01:38.901Z,18.60
2017-06-04T07:04:07.352Z,18.70
2017-06-04T07:06:35.743Z,18.70
2017-06-04T07:09:04.111Z,18.80
2017-06-04T07:11:32.504Z,18.80
2017-06-04T07:14:00.874Z,18.90
2017-06-04T07:16:29.237Z,18.90
2017-06-04T07:18:57.632Z,18.90
2017-06-04T07:21:25.991Z,18.80
2017-06-04T07:23:54.383Z,18.80
2017-06-04T07:26:22.756Z,18.80
2017-06-04T07:28:51.138Z,18.80
2017-06-04T07:31:19.505Z,18.90
2017-06-04T07:33:47.908Z,19.00
2017-06-04T07:36:16.273Z,19.10
2017-06-04T07:38:44.640Z,19.20
2017-06-04T07:41:13.032Z,19.30
2017-06-04T07:43:41.395Z,19.40
2017-06-04T07:46:09.786Z,19.60
2017-06-04T07:48:38.152Z,19.90
2017-06-04T07:51:06.546Z,20.30
2017-06-04T07:53:34.913Z,20.30
2017-06-04T07:56:03.303Z,20.40
2017-06-04T07:58:31.666Z,20.50
2017-06-04T08:01:00.056Z,20.40
2017-06-04T08:03:28.431Z,20.30
2017-06-04T08:05:56.826Z,20.20
2017-06-04T08:08:25.194Z,20.40
2017-06-04T08:10:53.583Z,20.50
2017-06-04T08:13:21.942Z,20.30
2017-06-04T08:15:50.335Z,20.20
2017-06-04T08:18:18.700Z,20.20
2017-06-04T08:20:47.082Z,20.20
2017-06-04T08:23:15.443Z,20.10
2017-06-04T08:25:43.838Z,20.00
2017-06-04T08:28:12.198Z,20.00
2017-06-04T08:30:40.599Z,20.20
2017-06-04T08:33:08.962Z,20.30
2017-06-04T08:35:37.350Z,20.70
2017-06-04T08:38:05.711Z,20.70
2017-06-04T08:40:34.112Z,20.50
2017-06-04T08:43:02.469Z,20.40
2017-06-04T08:45:30.891Z,20.50
2017-06-04T08:47:59.250Z,20.70
2017-06-04T08:50:27.612Z,20.80
2017-06-04T08:52:56.003Z,20.90
2017-06-04T08:55:24.363Z,21.00
2017-06-04T08:57:52.767Z,21.00
2017-06-04T09:00:20.382Z,20.90
2017-06-04T09:02:48.768Z,21.20
2017-06-04T09:05:17.124Z,21.40
2017-06-04T09:07:45.523Z,21.60
2017-06-04T09:10:13.914Z,21.70
2017-06-04T09:12:42.315Z,21.70
2017-06-04T09:15:10.678Z,21.70
2017-06-04T09:17:38.363Z,21.70
2017-06-04T09:20:06.723Z,21.80
2017-06-04T09:22:35.141Z,21.80
2017-06-04T09:25:03.503Z,21.80
2017-06-04T09:27:31.861Z,21.70
2017-06-04T09:30:00.242Z,21.60
2017-06-04T09:32:28.618Z,21.70
2017-06-04T09:34:57.004Z,21.50
2017-06-04T09:37:25.377Z,21.50
2017-06-04T09:39:53.759Z,21.40
2017-06-04T09:42:22.125Z,21.20
2017-06-04T09:44:50.546Z,21.30
2017-06-04T09:47:18.899Z,21.80
2017-06-04T09:49:47.258Z,21.80
2017-06-04T09:52:15.643Z,21.80
2017-06-04T09:54:44.166Z,21.70
2017-06-04T09:57:12.564Z,21.50
2017-06-04T09:59:40.916Z,21.30
2017-06-04T10:02:09.298Z,21.30
2017-06-04T10:04:37.752Z,21.30
2017-06-04T10:07:10.164Z,21.70
2017-06-04T10:09:38.592Z,21.80
2017-06-04T10:12:06.957Z,21.60
2017-06-04T10:14:35.352Z,21.30
2017-06-04T10:17:03.723Z,21.00
2017-06-04T10:19:32.108Z,20.90
2017-06-04T10:22:00.472Z,21.00
2017-06-04T10:24:28.859Z,21.40
2017-06-04T10:26:57.236Z,21.40
2017-06-04T10:29:25.638Z,21.10
2017-06-04T10:31:53.999Z,20.70
2017-06-04T10:34:22.355Z,20.80
2017-06-04T10:36:49.985Z,20.80
2017-06-04T10:39:18.345Z,21.50
2017-06-04T10:41:45.974Z,21.60
2017-06-04T10:44:14.360Z,21.20
2017-06-04T10:46:42.748Z,21.00
2017-06-04T10:49:11.126Z,20.90
2017-06-04T10:51:39.539Z,21.00
2017-06-04T10:54:07.895Z,20.90
2017-06-04T10:56:36.245Z,20.80
2017-06-04T10:59:04.652Z,20.70
2017-06-04T11:01:33.019Z,20.60
2017-06-04T11:04:01.410Z,21.10
2017-06-04T11:06:29.776Z,21.70
2017-06-04T11:08:58.164Z,22.40
2017-06-04T11:11:26.527Z,22.80
2017-06-04T11:13:54.958Z,23.30
2017-06-04T11:16:23.318Z,23.30
2017-06-04T11:18:51.686Z,22.90
2017-06-04T11:21:20.072Z,22.50
2017-06-04T11:23:48.431Z,22.20
2017-06-04T11:26:16.908Z,22.30
2017-06-04T11:28:45.263Z,22.80
2017-06-04T11:31:13.672Z,23.40
2017-06-04T11:33:42.032Z,23.80
2017-06-04T11:36:09.656Z,23.70
2017-06-04T11:38:38.024Z,23.00
2017-06-04T11:41:06.385Z,22.60
2017-06-04T11:43:34.803Z,22.40
2017-06-04T11:46:03.215Z,22.50
2017-06-04T11:48:31.600Z,22.90
2017-06-04T11:50:59.955Z,23.20
2017-06-04T11:53:28.343Z,22.90
2017-06-04T11:55:56.727Z,23.00
2017-06-04T11:58:25.128Z,23.40
2017-06-04T12:00:53.487Z,23.50
2017-06-04T12:03:21.872Z,23.60
2017-06-04T12:05:50.233Z,24.10
2017-06-04T12:08:18.620Z,24.50
2017-06-04T12:10:46.976Z,24.80
2017-06-04T12:13:15.358Z,25.00
2017-06-04T12:15:43.733Z,25.30
2017-06-04T12:18:12.121Z,25.40
2017-06-04T12:20:40.587Z,25.60
2017-06-04T12:23:11.087Z,25.80
2017-06-04T12:25:38.713Z,25.80
2017-06-04T12:28:07.104Z,26.20
2017-06-04T12:30:35.496Z,25.90
2017-06-04T12:33:03.883Z,25.30
2017-06-04T12:35:32.246Z,24.90
2017-06-04T12:38:00.632Z,24.90
2017-06-04T12:40:28.247Z,24.90
2017-06-04T12:42:57.207Z,25.10
2017-06-04T12:45:25.563Z,24.80
2017-06-04T12:47:53.943Z,24.80
2017-06-04T12:50:22.367Z,24.90
2017-06-04T12:52:50.752Z,25.20
2017-06-04T12:55:19.128Z,25.00
2017-06-04T12:57:47.511Z,24.80
2017-06-04T13:00:15.895Z,24.50
2017-06-04T13:02:44.288Z,24.30
2017-06-04T13:05:12.664Z,24.30
2017-06-04T13:07:41.074Z,24.80
2017-06-04T13:10:08.687Z,24.70
2017-06-04T13:12:37.075Z,25.40
2017-06-04T13:15:05.478Z,25.40
2017-06-04T13:17:33.863Z,25.10
2017-06-04T13:20:02.225Z,24.60
2017-06-04T13:22:30.615Z,24.10
2017-06-04T13:24:58.981Z,23.60
2017-06-04T13:27:27.375Z,23.40
2017-06-04T13:29:55.816Z,23.30
2017-06-04T13:32:24.196Z,23.60
2017-06-04T13:34:52.574Z,24.10
2017-06-04T13:37:20.980Z,24.70
2017-06-04T13:39:49.336Z,25.20
2017-06-04T13:42:17.695Z,25.40
2017-06-04T13:44:50.119Z,25.10
2017-06-04T13:47:18.484Z,24.70
2017-06-04T13:49:46.867Z,24.30
2017-06-04T13:52:15.228Z,24.00
2017-06-04T13:54:43.622Z,23.80
2017-06-04T13:57:11.985Z,23.60
2017-06-04T13:59:39.689Z,23.60
2017-06-04T14:02:08.043Z,23.50
2017-06-04T14:04:36.427Z,23.40
2017-06-04T14:07:04.784Z,23.20
2017-06-04T14:09:33.178Z,23.10
2017-06-04T14:12:01.579Z,23.10
2017-06-04T14:14:30.035Z,22.90
2017-06-04T14:16:58.396Z,22.70
2017-06-04T14:19:26.791Z,22.60
2017-06-04T14:21:55.211Z,22.50
2017-06-04T14:24:23.658Z,22.30
2017-06-04T14:26:52.042Z,22.10
2017-06-04T14:29:20.522Z,21.70
2017-06-04T14:31:48.962Z,21.30
2017-06-04T14:34:17.348Z,21.00
2017-06-04T14:36:45.708Z,20.70
2017-06-04T14:39:14.102Z,20.40
2017-06-04T14:41:42.480Z,20.20
2017-06-04T14:44:10.868Z,20.00
2017-06-04T14:46:39.236Z,19.80
2017-06-04T14:49:07.629Z,19.60
2017-06-04T14:51:36.003Z,19.50
2017-06-04T14:54:04.387Z,19.30
2017-06-04T14:56:32.764Z,19.30
2017-06-04T14:59:01.142Z,19.40
2017-06-04T15:01:29.508Z,19.30
2017-06-04T15:03:57.891Z,19.30
2017-06-04T15:06:26.258Z,19.40
2017-06-04T15:08:54.638Z,19.40
2017-06-04T15:11:23.024Z,19.60
2017-06-04T15:13:51.414Z,19.70
2017-06-04T15:16:19.780Z,19.80
2017-06-04T15:18:48.172Z,19.90
2017-06-04T15:21:16.538Z,20.00
2017-06-04T15:23:44.920Z,20.10
2017-06-04T15:26:13.292Z,20.20
2017-06-04T15:28:41.669Z,20.30
2017-06-04T15:31:10.052Z,20.30
2017-06-04T15:33:38.451Z,20.20
2017-06-04T15:36:06.821Z,20.10
2017-06-04T15:38:35.235Z,20.10
2017-06-04T15:41:02.837Z,20.10
2017-06-04T15:43:31.228Z,20.20
2017-06-04T15:45:59.607Z,20.10
2017-06-04T15:48:27.988Z,20.10
2017-06-04T15:50:56.370Z,20.10
2017-06-04T15:53:24.738Z,20.10
2017-06-04T15:55:53.116Z,20.20
2017-06-04T15:58:21.495Z,20.20
2017-06-04T16:00:49.885Z,20.20
2017-06-04T16:03:18.267Z,20.10
2017-06-04T16:05:46.630Z,20.00
2017-06-04T16:08:15.031Z,19.90
2017-06-04T16:10:43.396Z,19.80
2017-06-04T16:13:11.777Z,19.80
2017-06-04T16:15:40.147Z,19.60
2017-06-04T16:18:08.547Z,19.40
2017-06-04T16:20:36.907Z,19.20
2017-06-04T16:23:05.291Z,19.10
2017-06-04T16:25:33.679Z,19.00
2017-06-04T16:28:02.055Z,19.00
2017-06-04T16:30:30.430Z,19.00
2017-06-04T16:32:58.787Z,18.90
2017-06-04T16:35:27.199Z,18.90
2017-06-04T16:37:55.558Z,18.90
2017-06-04T16:40:23.912Z,18.80
2017-06-04T16:42:52.295Z,18.80
2017-06-04T16:45:20.659Z,18.80
2017-06-04T16:47:49.052Z,18.70
2017-06-04T16:50:17.408Z,18.80
2017-06-04T16:52:45.769Z,18.80
2017-06-04T16:55:14.152Z,18.80
2017-06-04T16:57:42.506Z,18.70
2017-06-04T17:00:10.922Z,18.70
2017-06-04T17:02:39.294Z,18.60
2017-06-04T17:05:07.653Z,18.60
2017-06-04T17:07:36.035Z,18.50
2017-06-04T17:10:04.409Z,18.50
2017-06-04T17:12:32.819Z,18.50
2017-06-04T17:15:01.178Z,18.50
2017-06-04T17:17:29.815Z,18.40
2017-06-04T17:19:58.191Z,18.40
2017-06-04T17:22:26.548Z,18.40
2017-06-04T17:24:54.964Z,18.30
2017-06-04T17:27:23.334Z,18.30
2017-06-04T17:29:51.706Z,18.30
2017-06-04T17:32:20.088Z,18.30
2017-06-04T17:34:48.483Z,18.30
2017-06-04T17:37:16.861Z,18.30
2017-06-04T17:39:45.248Z,18.20
2017-06-04T17:42:13.666Z,18.20
2017-06-04T17:44:42.056Z,18.20
2017-06-04T17:47:10.424Z,18.20
2017-06-04T17:49:38.883Z,18.20
2017-06-04T17:52:07.246Z,18.20
2017-06-04T17:54:35.628Z,18.10
2017-06-04T17:57:03.224Z,18.10
2017-06-04T17:59:31.738Z,18.10
2017-06-04T18:02:00.098Z,18.10
2017-06-04T18:04:28.499Z,18.10
2017-06-04T18:06:57.054Z,18.00
2017-06-04T18:09:25.431Z,18.10
2017-06-04T18:11:53.832Z,18.10
2017-06-04T18:14:22.190Z,18.20
2017-06-04T18:16:50.691Z,18.30
2017-06-04T18:19:18.295Z,18.30
2017-06-04T18:21:46.054Z,19.00
2017-06-04T18:24:14.436Z,20.00
2017-06-04T18:26:42.034Z,20.00
2017-06-04T18:29:10.500Z,20.30
2017-06-04T18:31:38.870Z,20.10
2017-06-04T18:34:07.317Z,19.70
2017-06-04T18:36:35.695Z,19.40
2017-06-04T18:39:04.121Z,19.10
2017-06-04T18:41:32.486Z,18.80
2017-06-04T18:44:00.937Z,18.60
2017-06-04T18:46:29.320Z,18.40
2017-06-04T18:48:57.762Z,18.20
2017-06-04T18:51:26.226Z,18.10
2017-06-04T18:53:54.618Z,17.90
2017-06-04T18:56:23.000Z,17.80
2017-06-04T18:58:51.390Z,17.70
2017-06-04T19:01:19.830Z,17.60
2017-06-04T19:03:48.219Z,17.40
2017-06-04T19:06:16.695Z,17.20
2017-06-04T19:08:45.056Z,17.10
2017-06-04T19:11:13.558Z,17.00
2017-06-04T19:13:41.939Z,16.80
2017-06-04T19:16:10.305Z,16.70
2017-06-04T19:18:38.711Z,16.60
2017-06-04T19:21:07.084Z,16.40
2017-06-04T19:23:35.483Z,16.30
2017-06-04T19:26:03.873Z,16.10
2017-06-04T19:28:32.304Z,16.00
2017-06-04T19:31:00.689Z,15.90
2017-06-04T19:33:29.099Z,15.80
2017-06-04T19:35:57.516Z,15.70
2017-06-04T19:38:25.903Z,15.60
2017-06-04T19:40:54.263Z,15.40
2017-06-04T19:43:22.695Z,15.30
2017-06-04T19:45:51.086Z,15.20
2017-06-04T19:48:19.493Z,15.10
2017-06-04T19:50:47.854Z,15.00
2017-06-04T19:53:16.267Z,14.90
2017-06-04T19:55:44.679Z,14.80
2017-06-04T19:58:13.058Z,14.60
2017-06-04T20:00:41.494Z,14.50
2017-06-04T20:03:09.887Z,14.30
2017-06-04T20:05:38.316Z,14.20
2017-06-04T20:08:06.676Z,14.20
2017-06-04T20:10:35.062Z,14.20
2017-06-04T20:13:03.427Z,14.20
2017-06-04T20:15:31.813Z,14.10
2017-06-04T20:18:00.179Z,14.00
2017-06-04T20:20:28.566Z,13.90
2017-06-04T20:22:56.945Z,13.90
2017-06-04T20:25:25.322Z,13.80
2017-06-04T20:27:53.708Z,13.80
2017-06-04T20:30:22.078Z,13.80
2017-06-04T20:32:50.476Z,13.70
2017-06-04T20:35:18.860Z,13.70
2017-06-04T20:37:47.251Z,13.60
2017-06-04T20:40:15.617Z,13.60
2017-06-04T20:42:44.047Z,13.50
2017-06-04T20:45:12.417Z,13.50
2017-06-04T20:47:40.793Z,13.30
2017-06-04T20:50:09.187Z,13.20
2017-06-04T20:52:37.552Z,13.10
2017-06-04T20:55:05.947Z,13.10
2017-06-04T20:57:34.318Z,13.10
2017-06-04T21:00:02.728Z,13.00
2017-06-04T21:02:31.106Z,12.90
2017-06-04T21:04:59.499Z,12.90
2017-06-04T21:07:27.860Z,12.80
2017-06-04T21:09:56.295Z,12.80
2017-06-04T21:12:24.717Z,12.80
2017-06-04T21:14:53.085Z,12.70
2017-06-04T21:17:21.475Z,12.70
2017-06-04T21:19:49.841Z,12.70
2017-06-04T21:22:19.231Z,12.70
2017-06-04T21:24:47.603Z,12.70
2017-06-04T21:27:16.093Z,12.70
2017-06-04T21:29:44.467Z,12.60
2017-06-04T21:32:12.957Z,12.60
2017-06-04T21:34:41.325Z,12.70
2017-06-04T21:37:09.692Z,12.70
2017-06-04T21:39:38.078Z,12.70
2017-06-04T21:42:06.441Z,12.70
2017-06-04T21:44:34.829Z,12.70
2017-06-04T21:47:03.191Z,12.80
2017-06-04T21:49:31.571Z,12.80
2017-06-04T21:51:59.968Z,12.90
2017-06-04T21:54:28.365Z,12.90
2017-06-04T21:56:56.807Z,13.00
2017-06-04T21:59:25.224Z,13.00
2017-06-04T22:01:53.596Z,13.10
2017-06-04T22:04:21.970Z,13.10
2017-06-04T22:06:50.363Z,13.10
2017-06-04T22:09:18.729Z,13.10
2017-06-04T22:11:47.130Z,13.10
2017-06-04T22:14:15.523Z,13.20
2017-06-04T22:16:43.906Z,13.20
2017-06-04T22:19:12.271Z,13.20
2017-06-04T22:21:40.755Z,13.20
2017-06-04T22:24:09.154Z,13.20
2017-06-04T22:26:37.527Z,13.20
2017-06-04T22:29:05.935Z,13.20
2017-06-04T22:31:34.319Z,13.20
2017-06-04T22:34:02.701Z,13.10
2017-06-04T22:36:31.075Z,13.00
2017-06-04T22:38:59.460Z,12.90
2017-06-04T22:41:27.845Z,12.90
2017-06-04T22:43:56.251Z,12.80
2017-06-04T22:46:24.617Z,12.70
2017-06-04T22:48:53.018Z,12.60
2017-06-04T22:51:21.715Z,12.60
2017-06-04T22:53:50.081Z,12.50
2017-06-04T22:56:18.477Z,12.40
2017-06-04T22:58:46.848Z,12.40
2017-06-04T23:01:15.232Z,12.40
2017-06-04T23:03:43.599Z,12.30
2017-06-04T23:06:11.985Z,12.30
2017-06-04T23:08:39.660Z,12.30
2017-06-04T23:11:08.047Z,12.20
2017-06-04T23:13:36.438Z,12.20
2017-06-04T23:16:04.071Z,12.20
2017-06-04T23:18:32.438Z,12.10
2017-06-04T23:21:00.802Z,12.10
2017-06-04T23:23:29.341Z,12.00
2017-06-04T23:25:57.712Z,12.00
2017-06-04T23:28:26.129Z,11.90
2017-06-04T23:30:54.491Z,11.90
2017-06-04T23:33:22.881Z,11.80
2017-06-04T23:35:51.248Z,11.70
2017-06-04T23:38:19.635Z,11.60
2017-06-04T23:40:48.004Z,11.60
2017-06-04T23:43:16.391Z,11.50
2017-06-04T23:45:43.992Z,11.50
2017-06-04T23:48:12.409Z,11.40
2017-06-04T23:50:40.777Z,11.30
2017-06-04T23:53:09.166Z,11.30
2017-06-04T23:55:37.558Z,11.30
2017-06-04T23:58:05.923Z,11.30
